createdAt,value
2022-10-15T00:00:51.715Z,99791.63
2022-10-15T00:03:18.341Z,99788.97
2022-10-15T00:05:44.828Z,99785.44
2022-10-15T00:08:12.151Z,99789.03
2022-10-15T00:10:39.548Z,99779.38
2022-10-15T00:13:06.588Z,99779.44
2022-10-15T00:15:35.593Z,99769.72
2022-10-15T00:18:02.163Z,99771.56
2022-10-15T00:20:28.681Z,99774.25
2022-10-15T00:22:55.215Z,99776.06
2022-10-15T00:25:21.748Z,99777.84
2022-10-15T00:27:48.349Z,99769.88
2022-10-15T00:30:14.881Z,99771.69
2022-10-15T00:32:43.778Z,99769.00
2022-10-15T00:35:10.401Z,99769.88
2022-10-15T00:37:37.250Z,99773.44
2022-10-15T00:40:04.197Z,99765.41
2022-10-15T00:42:32.258Z,99768.97
2022-10-15T00:44:59.544Z,99768.94
2022-10-15T00:47:32.404Z,99763.59
2022-10-15T00:50:04.316Z,99768.00
2022-10-15T00:52:59.050Z,99763.56
2022-10-15T00:55:31.776Z,99769.75
2022-10-15T00:58:06.761Z,99760.00
2022-10-15T01:00:33.974Z,99761.75
2022-10-15T01:03:00.703Z,99761.72
2022-10-15T01:05:28.510Z,99744.00
2022-10-15T01:07:55.141Z,99756.41
2022-10-15T01:10:22.942Z,99751.06
2022-10-15T01:13:07.585Z,99755.47
2022-10-15T01:15:46.304Z,99753.66
2022-10-15T01:18:20.585Z,99744.81
2022-10-15T01:21:12.917Z,99758.09
2022-10-15T01:24:02.739Z,99745.75
2022-10-15T01:26:47.554Z,99749.25
2022-10-15T01:29:49.415Z,99729.78
2022-10-15T01:32:36.365Z,99737.75
2022-10-15T01:35:22.267Z,99737.78
2022-10-15T01:37:58.211Z,99732.50
2022-10-15T01:40:34.574Z,99737.81
2022-10-15T01:43:12.314Z,99738.75
2022-10-15T01:46:18.260Z,99738.75
2022-10-15T01:49:04.215Z,99735.19
2022-10-15T01:51:35.007Z,99728.09
2022-10-15T01:54:04.717Z,99736.06
2022-10-15T01:56:34.764Z,99735.25
2022-10-15T01:59:04.491Z,99736.09
2022-10-15T02:01:31.204Z,99737.88
2022-10-15T02:03:57.857Z,99736.09
2022-10-15T02:06:39.175Z,99735.25
2022-10-15T02:09:16.705Z,99733.47
2022-10-15T02:12:15.524Z,99730.84
2022-10-15T02:15:01.408Z,99733.50
2022-10-15T02:17:38.693Z,99729.09
2022-10-15T02:20:24.612Z,99737.09
2022-10-15T02:23:11.177Z,99731.75
2022-10-15T02:25:40.645Z,99723.78
2022-10-15T02:28:09.664Z,99721.16
2022-10-15T02:30:39.418Z,99718.50
2022-10-15T02:33:06.918Z,99702.63
2022-10-15T02:35:34.505Z,99702.66
2022-10-15T02:38:06.722Z,99702.63
2022-10-15T02:40:35.686Z,99686.75
2022-10-15T02:43:06.421Z,99701.84
2022-10-15T02:45:34.454Z,99696.56
2022-10-15T02:48:01.017Z,99696.63
2022-10-15T02:50:27.690Z,99695.75
2022-10-15T02:52:54.362Z,99701.09
2022-10-15T02:55:20.935Z,99702.06
2022-10-15T02:57:47.674Z,99693.25
2022-10-15T03:00:14.617Z,99695.06
2022-10-15T03:02:41.237Z,99696.03
2022-10-15T03:05:08.373Z,99687.25
2022-10-15T03:07:34.891Z,99687.38
2022-10-15T03:10:01.592Z,99698.97
2022-10-15T03:12:28.759Z,99703.50
2022-10-15T03:14:56.000Z,99695.63
2022-10-15T03:17:23.479Z,99705.44
2022-10-15T03:19:50.392Z,99700.22
2022-10-15T03:22:17.276Z,99701.25
2022-10-15T03:24:50.491Z,99697.81
2022-10-15T03:27:24.384Z,99710.31
2022-10-15T03:29:51.431Z,99713.91
2022-10-15T03:32:18.016Z,99710.41
2022-10-15T03:34:44.667Z,99702.47
2022-10-15T03:37:13.672Z,99699.88
2022-10-15T03:39:40.182Z,99699.91
2022-10-15T03:42:08.122Z,99699.97
2022-10-15T03:44:39.560Z,99697.44
2022-10-15T03:47:10.036Z,99708.09
2022-10-15T03:49:47.804Z,99706.38
2022-10-15T03:52:15.040Z,99706.41
2022-10-15T03:54:42.613Z,99708.19
2022-10-15T03:57:10.541Z,99716.16
2022-10-15T04:02:11.286Z,99713.41
2022-10-15T04:04:37.883Z,99717.75
2022-10-15T04:07:04.518Z,99714.16
2022-10-15T04:09:32.786Z,99715.06
2022-10-15T04:12:18.170Z,99708.88
2022-10-15T04:14:45.842Z,99715.06
2022-10-15T04:17:12.576Z,99721.25
2022-10-15T04:19:39.194Z,99709.78
2022-10-15T04:22:06.110Z,99720.47
2022-10-15T04:24:40.692Z,99733.84
2022-10-15T04:27:07.928Z,99721.47
2022-10-15T04:29:35.080Z,99727.75
2022-10-15T04:32:15.315Z,99723.41
2022-10-15T04:34:43.013Z,99725.25
2022-10-15T04:37:09.914Z,99730.63
2022-10-15T04:39:37.443Z,99728.91
2022-10-15T04:42:04.257Z,99732.47
2022-10-15T04:44:33.117Z,99727.22
2022-10-15T04:47:00.977Z,99727.25
2022-10-15T04:49:33.354Z,99724.63
2022-10-15T04:52:02.549Z,99728.22
2022-10-15T04:54:49.534Z,99731.81
2022-10-15T04:57:18.147Z,99729.19
2022-10-15T04:59:45.041Z,99730.09
2022-10-15T05:02:30.349Z,99741.59
2022-10-15T05:05:09.944Z,99738.97
2022-10-15T05:07:45.842Z,99738.13
2022-10-15T05:10:12.531Z,99737.25
2022-10-15T05:12:39.049Z,99737.25
2022-10-15T05:15:06.855Z,99734.63
2022-10-15T05:17:34.644Z,99741.69
2022-10-15T05:20:01.267Z,99750.53
2022-10-15T05:22:28.542Z,99752.28
2022-10-15T05:24:58.730Z,99751.41
2022-10-15T05:27:36.429Z,99756.69
2022-10-15T05:30:05.242Z,99760.16
2022-10-15T05:32:40.673Z,99748.66
2022-10-15T05:35:10.780Z,99755.66
2022-10-15T05:37:54.954Z,99743.25
2022-10-15T05:40:22.861Z,99752.91
2022-10-15T05:43:01.814Z,99752.88
2022-10-15T05:45:28.430Z,99758.25
2022-10-15T05:47:58.077Z,99757.41
2022-10-15T05:50:24.611Z,99764.50
2022-10-15T05:52:54.948Z,99760.97
2022-10-15T05:55:30.861Z,99749.53
2022-10-15T05:58:01.436Z,99761.91
2022-10-15T06:00:28.066Z,99758.34
2022-10-15T06:05:22.210Z,99761.00
2022-10-15T06:07:48.859Z,99766.25
2022-10-15T06:10:15.598Z,99764.41
2022-10-15T06:12:42.783Z,99773.22
2022-10-15T06:15:09.821Z,99782.91
2022-10-15T06:17:36.353Z,99774.00
2022-10-15T06:20:03.030Z,99781.94
2022-10-15T06:22:32.762Z,99781.94
2022-10-15T06:24:59.693Z,99774.88
2022-10-15T06:27:31.480Z,99773.97
2022-10-15T06:29:58.021Z,99778.31
2022-10-15T06:32:24.924Z,99781.00
2022-10-15T06:34:54.144Z,99783.66
2022-10-15T06:37:22.966Z,99782.78
2022-10-15T06:39:51.025Z,99790.69
2022-10-15T06:42:17.700Z,99787.13
2022-10-15T06:44:47.597Z,99795.03
2022-10-15T06:47:16.774Z,99795.00
2022-10-15T06:49:47.265Z,99794.09
2022-10-15T06:52:13.927Z,99802.00
2022-10-15T06:54:40.649Z,99805.50
2022-10-15T06:57:07.787Z,99800.22
2022-10-15T06:59:37.106Z,99806.38
2022-10-15T07:02:07.067Z,99811.63
2022-10-15T07:04:33.618Z,99811.63
2022-10-15T07:07:00.278Z,99813.41
2022-10-15T07:09:28.737Z,99818.72
2022-10-15T07:11:55.444Z,99817.00
2022-10-15T07:14:21.983Z,99818.78
2022-10-15T07:16:48.597Z,99819.63
2022-10-15T07:19:15.247Z,99821.31
2022-10-15T07:21:42.493Z,99823.00
2022-10-15T07:24:09.058Z,99811.31
2022-10-15T07:26:36.242Z,99822.66
2022-10-15T07:29:03.844Z,99830.47
2022-10-15T07:31:31.027Z,99822.34
2022-10-15T07:33:57.632Z,99823.97
2022-10-15T07:36:25.993Z,99821.16
2022-10-15T07:38:52.625Z,99822.78
2022-10-15T07:41:19.108Z,99828.03
2022-10-15T07:43:45.763Z,99828.72
2022-10-15T07:46:12.494Z,99829.47
2022-10-15T07:48:39.163Z,99828.44
2022-10-15T07:51:07.159Z,99824.66
2022-10-15T07:53:34.367Z,99824.47
2022-10-15T07:56:03.707Z,99828.72
2022-10-15T07:58:34.567Z,99826.81
2022-10-15T08:01:02.621Z,99827.53
2022-10-15T08:03:30.711Z,99830.88
2022-10-15T08:06:00.125Z,99834.16
2022-10-15T08:08:28.157Z,99826.03
2022-10-15T08:10:54.857Z,99836.53
2022-10-15T08:13:22.005Z,99827.50
2022-10-15T08:15:50.729Z,99831.91
2022-10-15T08:18:17.400Z,99827.41
2022-10-15T08:20:43.923Z,99834.44
2022-10-15T08:23:15.971Z,99825.53
2022-10-15T08:25:43.165Z,99831.63
2022-10-15T08:28:12.373Z,99826.34
2022-10-15T08:30:38.944Z,99838.81
2022-10-15T08:33:12.548Z,99837.16
2022-10-15T08:35:43.761Z,99831.97
2022-10-15T08:38:14.742Z,99838.22
2022-10-15T08:40:52.829Z,99835.34
2022-10-15T08:43:41.035Z,99831.31
2022-10-15T08:46:22.924Z,99833.81
2022-10-15T08:48:56.389Z,99837.22
2022-10-15T08:51:27.188Z,99838.75
2022-10-15T08:53:59.884Z,99844.72
2022-10-15T08:56:40.254Z,99840.81
2022-10-15T08:59:31.616Z,99844.84
2022-10-15T09:02:22.987Z,99850.72
2022-10-15T09:04:56.164Z,99847.03
2022-10-15T09:07:40.540Z,99849.56
2022-10-15T09:10:27.489Z,99847.56
2022-10-15T09:13:01.290Z,99849.31
2022-10-15T09:15:34.397Z,99850.06
2022-10-15T09:18:01.022Z,99847.34
2022-10-15T09:20:35.969Z,99841.19
2022-10-15T09:23:03.309Z,99847.53
2022-10-15T09:25:36.975Z,99849.41
2022-10-15T09:28:10.841Z,99846.75
2022-10-15T09:30:51.038Z,99843.22
2022-10-15T09:33:35.955Z,99841.44
2022-10-15T09:36:39.287Z,99848.56
2022-10-15T09:39:19.817Z,99843.16
2022-10-15T09:42:25.876Z,99837.78
2022-10-15T09:44:54.880Z,99841.25
2022-10-15T09:47:26.328Z,99844.63
2022-10-15T09:50:00.223Z,99847.19
2022-10-15T09:52:58.969Z,99847.09
2022-10-15T09:55:25.441Z,99848.84
2022-10-15T09:57:54.988Z,99852.38
2022-10-15T10:00:22.827Z,99843.44
2022-10-15T10:03:15.233Z,99842.22
2022-10-15T10:05:42.153Z,99843.81
2022-10-15T10:08:36.328Z,99834.56
2022-10-15T10:11:06.140Z,99837.16
2022-10-15T10:13:55.153Z,99839.69
2022-10-15T10:16:22.610Z,99845.69
2022-10-15T10:19:16.373Z,99856.38
2022-10-15T10:21:43.565Z,99852.06
2022-10-15T10:24:30.209Z,99847.91
2022-10-15T10:26:59.632Z,99853.13
2022-10-15T10:29:35.731Z,99853.75
2022-10-15T10:32:21.477Z,99854.97
2022-10-15T10:34:52.444Z,99850.03
2022-10-15T10:37:19.634Z,99860.31
2022-10-15T10:39:53.005Z,99856.47
2022-10-15T10:42:22.201Z,99861.72
2022-10-15T10:44:48.866Z,99853.56
2022-10-15T10:47:19.844Z,99845.41
2022-10-15T10:49:57.324Z,99848.44
2022-10-15T10:52:34.494Z,99838.19
2022-10-15T10:55:26.658Z,99830.50
2022-10-15T10:57:56.595Z,99836.22
2022-10-15T11:00:32.126Z,99837.69
2022-10-15T11:02:59.330Z,99832.44
2022-10-15T11:05:31.389Z,99839.31
2022-10-15T11:08:38.884Z,99845.22
2022-10-15T11:11:17.442Z,99837.84
2022-10-15T11:13:43.994Z,99834.81
2022-10-15T11:16:31.784Z,99831.88
2022-10-15T11:19:34.790Z,99846.59
2022-10-15T11:22:25.816Z,99846.94
2022-10-15T11:25:07.542Z,99839.78
2022-10-15T11:27:46.289Z,99840.06
2022-10-15T11:30:30.247Z,99844.41
2022-10-15T11:33:11.996Z,99829.78
2022-10-15T11:35:54.431Z,99825.25
2022-10-15T11:38:48.694Z,99816.28
2022-10-15T11:41:24.241Z,99824.97
2022-10-15T11:44:21.283Z,99817.88
2022-10-15T11:47:09.660Z,99811.81
2022-10-15T11:49:54.689Z,99802.22
2022-10-15T11:52:41.179Z,99813.94
2022-10-15T11:55:19.619Z,99800.50
2022-10-15T11:57:49.202Z,99795.16
2022-10-15T12:00:37.155Z,99807.47
2022-10-15T12:03:12.423Z,99795.41
2022-10-15T12:05:54.783Z,99793.78
2022-10-15T12:08:26.639Z,99787.72
2022-10-15T12:11:11.909Z,99782.59
2022-10-15T12:14:04.575Z,99792.47
2022-10-15T12:16:54.018Z,99792.63
2022-10-15T12:19:29.312Z,99800.72
2022-10-15T12:21:56.206Z,99774.91
2022-10-15T12:24:38.731Z,99770.25
2022-10-15T12:27:28.371Z,99776.88
2022-10-15T12:30:03.846Z,99778.19
2022-10-15T12:32:37.711Z,99775.94
2022-10-15T12:35:30.609Z,99772.44
2022-10-15T12:38:10.724Z,99784.25
2022-10-15T12:40:39.528Z,99775.31
2022-10-15T12:43:16.160Z,99783.81
2022-10-15T12:45:56.464Z,99777.00
2022-10-15T12:48:36.510Z,99781.88
2022-10-15T12:51:29.978Z,99787.41
2022-10-15T12:53:58.809Z,99785.97
2022-10-15T12:56:38.545Z,99786.56
2022-10-15T12:59:28.817Z,99779.16
2022-10-15T13:01:55.429Z,99775.94
2022-10-15T13:04:22.441Z,99776.19
2022-10-15T13:06:49.642Z,99765.63
2022-10-15T13:09:27.485Z,99770.31
2022-10-15T13:11:56.916Z,99758.94
2022-10-15T13:14:46.302Z,99763.53
2022-10-15T13:17:20.528Z,99752.88
2022-10-15T13:19:58.649Z,99743.97
2022-10-15T13:22:28.182Z,99749.38
2022-10-15T13:24:55.907Z,99743.13
2022-10-15T13:27:39.689Z,99743.84
2022-10-15T13:30:14.382Z,99749.03
2022-10-15T13:32:49.210Z,99747.16
2022-10-15T13:35:22.779Z,99753.81
2022-10-15T13:37:49.841Z,99739.97
2022-10-15T13:40:22.270Z,99748.28
2022-10-15T13:43:23.056Z,99736.22
2022-10-15T13:46:00.859Z,99744.28
2022-10-15T13:48:31.544Z,99737.19
2022-10-15T13:51:05.836Z,99744.44
2022-10-15T13:53:40.067Z,99738.00
2022-10-15T13:56:28.483Z,99741.13
2022-10-15T13:58:55.972Z,99729.50
2022-10-15T14:01:25.190Z,99727.84
2022-10-15T14:03:52.820Z,99723.66
2022-10-15T14:06:26.136Z,99720.38
2022-10-15T14:08:55.762Z,99715.28
2022-10-15T14:11:23.431Z,99712.84
2022-10-15T14:13:55.662Z,99710.50
2022-10-15T14:16:42.350Z,99709.88
2022-10-15T14:19:21.479Z,99718.13
2022-10-15T14:21:52.068Z,99705.75
2022-10-15T14:24:24.961Z,99703.09
2022-10-15T14:26:51.691Z,99708.38
2022-10-15T14:29:29.383Z,99713.81
2022-10-15T14:31:56.111Z,99716.47
2022-10-15T14:34:35.814Z,99706.59
2022-10-15T14:37:03.464Z,99704.63
2022-10-15T14:39:35.576Z,99699.25
2022-10-15T14:42:04.590Z,99708.25
2022-10-15T14:44:48.195Z,99714.63
2022-10-15T14:47:24.247Z,99717.38
2022-10-15T14:49:55.258Z,99716.41
2022-10-15T14:52:23.000Z,99721.72
2022-10-15T14:55:02.625Z,99719.97
2022-10-15T14:57:34.636Z,99723.44
2022-10-15T15:00:02.513Z,99721.53
2022-10-15T15:02:32.611Z,99723.19
2022-10-15T15:05:11.248Z,99719.44
2022-10-15T15:07:38.751Z,99718.53
2022-10-15T15:10:08.375Z,99714.91
2022-10-15T15:12:35.898Z,99721.25
2022-10-15T15:15:02.688Z,99723.13
2022-10-15T15:17:30.735Z,99717.81
2022-10-15T15:19:57.930Z,99713.38
2022-10-15T15:22:31.184Z,99708.00
2022-10-15T15:25:03.983Z,99713.38
2022-10-15T15:27:37.167Z,99714.25
2022-10-15T15:30:06.535Z,99716.00
2022-10-15T15:32:34.090Z,99714.19
2022-10-15T15:35:00.764Z,99716.16
2022-10-15T15:37:30.090Z,99713.88
2022-10-15T15:39:57.780Z,99716.72
2022-10-15T15:42:25.497Z,99716.94
2022-10-15T15:44:52.638Z,99721.63
2022-10-15T15:47:19.230Z,99727.09
2022-10-15T15:49:45.879Z,99729.03
2022-10-15T15:52:16.992Z,99723.78
2022-10-15T15:54:43.843Z,99726.47
2022-10-15T15:57:10.593Z,99722.03
2022-10-15T15:59:37.179Z,99722.94
2022-10-15T16:02:04.059Z,99722.13
2022-10-15T16:04:30.740Z,99722.22
2022-10-15T16:06:57.529Z,99708.13
2022-10-15T16:09:24.242Z,99713.53
2022-10-15T16:11:51.327Z,99706.53
2022-10-15T16:14:18.020Z,99719.09
2022-10-15T16:16:44.574Z,99715.59
2022-10-15T16:19:13.823Z,99717.44
2022-10-15T16:21:41.856Z,99714.88
2022-10-15T16:24:08.621Z,99707.91
2022-10-15T16:26:35.341Z,99709.16
2022-10-15T16:29:02.113Z,99714.88
2022-10-15T16:31:30.396Z,99722.34
2022-10-15T16:33:57.701Z,99730.59
2022-10-15T16:36:24.700Z,99722.81
2022-10-15T16:38:51.776Z,99738.00
2022-10-15T16:41:19.598Z,99735.28
2022-10-15T16:43:47.382Z,99735.28
2022-10-15T16:46:15.820Z,99730.03
2022-10-15T16:48:42.953Z,99743.56
2022-10-15T16:51:15.335Z,99741.09
2022-10-15T16:53:44.706Z,99744.88
2022-10-15T16:56:15.615Z,99748.56
2022-10-15T16:58:42.695Z,99745.09
2022-10-15T17:01:13.693Z,99746.09
2022-10-15T17:03:41.124Z,99740.91
2022-10-15T17:06:10.451Z,99750.78
2022-10-15T17:08:44.399Z,99746.50
2022-10-15T17:11:13.418Z,99755.56
2022-10-15T17:13:40.135Z,99756.63
2022-10-15T17:16:19.970Z,99758.56
2022-10-15T17:18:48.032Z,99757.75
2022-10-15T17:21:17.915Z,99774.69
2022-10-15T17:23:44.625Z,99761.31
2022-10-15T17:26:14.945Z,99764.00
2022-10-15T17:28:44.449Z,99769.38
2022-10-15T17:31:14.435Z,99781.13
2022-10-15T17:33:42.588Z,99782.13
2022-10-15T17:36:15.487Z,99785.66
2022-10-15T17:38:42.179Z,99785.50
2022-10-15T17:41:15.193Z,99780.06
2022-10-15T17:43:42.401Z,99773.88
2022-10-15T17:46:12.725Z,99770.38
2022-10-15T17:48:39.512Z,99767.66
2022-10-15T17:51:08.258Z,99769.56
2022-10-15T17:53:35.040Z,99785.72
2022-10-15T17:56:17.240Z,99776.16
2022-10-15T17:58:45.749Z,99787.00
2022-10-15T18:01:28.205Z,99788.94
2022-10-15T18:04:09.370Z,99792.59
2022-10-15T18:06:36.084Z,99791.81
2022-10-15T18:09:02.784Z,99794.63
2022-10-15T18:11:34.261Z,99795.56
2022-10-15T18:14:01.038Z,99798.44
2022-10-15T18:16:27.831Z,99795.91
2022-10-15T18:18:55.464Z,99807.59
2022-10-15T18:21:24.060Z,99815.69
2022-10-15T18:23:50.656Z,99817.63
2022-10-15T18:26:20.813Z,99818.63
2022-10-15T18:28:49.823Z,99814.28
2022-10-15T18:31:18.355Z,99819.78
2022-10-15T18:33:47.532Z,99807.41
2022-10-15T18:36:20.028Z,99816.34
2022-10-15T18:38:47.009Z,99811.97
2022-10-15T18:41:33.816Z,99819.97
2022-10-15T18:44:05.647Z,99817.31
2022-10-15T18:46:33.932Z,99818.19
2022-10-15T18:49:01.937Z,99812.84
2022-10-15T18:51:31.115Z,99823.44
2022-10-15T18:53:59.442Z,99821.59
2022-10-15T18:56:26.910Z,99832.97
2022-10-15T18:58:53.562Z,99832.91
2022-10-15T19:01:37.108Z,99840.00
2022-10-15T19:04:11.431Z,99840.94
2022-10-15T19:06:47.388Z,99847.06
2022-10-15T19:09:18.010Z,99855.78
2022-10-15T19:11:46.590Z,99861.88
2022-10-15T19:14:15.400Z,99866.28
2022-10-15T19:16:43.610Z,99856.47
2022-10-15T19:19:12.904Z,99855.63
2022-10-15T19:21:39.552Z,99854.69
2022-10-15T19:24:06.265Z,99855.50
2022-10-15T19:26:34.134Z,99850.03
2022-10-15T19:29:02.298Z,99855.34
2022-10-15T19:31:32.076Z,99852.63
2022-10-15T19:33:59.466Z,99849.91
2022-10-15T19:36:34.213Z,99866.81
2022-10-15T19:39:04.722Z,99866.72
2022-10-15T19:41:31.386Z,99875.47
2022-10-15T19:43:58.032Z,99879.00
2022-10-15T19:46:24.906Z,99878.06
2022-10-15T19:48:51.485Z,99881.53
2022-10-15T19:51:21.428Z,99879.69
2022-10-15T19:53:51.474Z,99879.59
2022-10-15T19:56:18.626Z,99887.56
2022-10-15T19:58:45.421Z,99892.91
2022-10-15T20:01:12.350Z,99892.91
2022-10-15T20:03:38.945Z,99900.09
2022-10-15T20:06:09.226Z,99905.56
2022-10-15T20:08:36.552Z,99907.47
2022-10-15T20:11:06.734Z,99911.13
2022-10-15T20:13:37.263Z,99911.16
2022-10-15T20:16:09.126Z,99916.41
2022-10-15T20:18:36.323Z,99926.13
2022-10-15T20:21:14.330Z,99926.03
2022-10-15T20:23:42.657Z,99919.78
2022-10-15T20:26:12.701Z,99933.06
2022-10-15T20:28:40.825Z,99930.34
2022-10-15T20:31:09.669Z,99930.38
2022-10-15T20:33:36.562Z,99928.69
2022-10-15T20:36:05.694Z,99928.75
2022-10-15T20:38:33.753Z,99942.09
2022-10-15T20:41:00.476Z,99931.47
2022-10-15T20:43:27.164Z,99943.13
2022-10-15T20:45:56.195Z,99957.41
2022-10-15T20:48:26.737Z,99969.91
2022-10-15T20:50:55.530Z,99973.41
2022-10-15T20:53:23.512Z,99968.03
2022-10-15T20:55:50.730Z,99981.31
2022-10-15T20:58:17.357Z,99990.13
2022-10-15T21:00:44.002Z,99980.22
2022-10-15T21:03:10.526Z,99987.31
2022-10-15T21:05:37.038Z,99991.72
2022-10-15T21:08:03.714Z,99989.06
2022-10-15T21:10:30.285Z,99981.06
2022-10-15T21:12:57.268Z,99982.03
2022-10-15T21:15:23.849Z,99992.72
2022-10-15T21:17:50.628Z,99997.19
2022-10-15T21:20:17.327Z,99991.03
2022-10-15T21:22:44.274Z,99999.94
2022-10-15T21:25:10.982Z,100000.84
2022-10-15T21:27:38.341Z,100002.63
2022-10-15T21:30:06.739Z,100011.50
2022-10-15T21:32:33.395Z,100014.19
2022-10-15T21:35:00.742Z,100014.19
2022-10-15T21:37:27.978Z,100019.53
2022-10-15T21:39:54.767Z,100016.03
2022-10-15T21:42:21.406Z,100016.09
2022-10-15T21:44:48.021Z,100017.94
2022-10-15T21:47:15.839Z,100040.34
2022-10-15T21:49:42.505Z,100043.09
2022-10-15T21:52:09.196Z,100045.88
2022-10-15T21:54:35.827Z,100051.28
2022-10-15T21:57:02.831Z,100061.06
2022-10-15T21:59:29.369Z,100053.16
2022-10-15T22:01:56.283Z,100054.13
2022-10-15T22:04:23.063Z,100065.69
2022-10-15T22:06:49.869Z,100071.91
2022-10-15T22:09:16.410Z,100070.13
2022-10-15T22:11:42.960Z,100063.94
2022-10-15T22:14:13.642Z,100072.00
2022-10-15T22:16:42.622Z,100071.13
2022-10-15T22:19:13.638Z,100083.53
2022-10-15T22:21:40.195Z,100102.16
2022-10-15T22:24:12.034Z,100096.78
2022-10-15T22:26:42.193Z,100095.03
2022-10-15T22:29:17.126Z,100096.88
2022-10-15T22:31:43.838Z,100109.38
2022-10-15T22:34:10.427Z,100105.94
2022-10-15T22:36:37.006Z,100100.69
2022-10-15T22:39:05.639Z,100114.06
2022-10-15T22:41:35.327Z,100111.50
2022-10-15T22:44:03.679Z,100108.03
2022-10-15T22:46:33.858Z,100103.63
2022-10-15T22:49:00.639Z,100102.81
2022-10-15T22:51:27.842Z,100109.03
2022-10-15T22:53:58.499Z,100121.56
2022-10-15T22:56:27.068Z,100123.38
2022-10-15T22:58:55.591Z,100122.56
2022-10-15T23:01:27.233Z,100115.50
2022-10-15T23:03:56.734Z,100121.78
2022-10-15T23:06:23.795Z,100133.38
2022-10-15T23:08:51.588Z,100133.44
2022-10-15T23:11:22.920Z,100134.38
2022-10-15T23:13:54.675Z,100128.22
2022-10-15T23:16:23.832Z,100137.97
2022-10-15T23:18:56.660Z,100138.00
2022-10-15T23:21:37.553Z,100145.16
2022-10-15T23:24:06.482Z,100143.44
2022-10-15T23:26:33.914Z,100150.56
2022-10-15T23:29:02.361Z,100147.09
2022-10-15T23:31:32.824Z,100140.91
2022-10-15T23:34:00.629Z,100137.44
2022-10-15T23:36:28.683Z,100146.34
2022-10-15T23:39:00.301Z,100157.06
2022-10-15T23:41:29.231Z,100143.81
2022-10-15T23:43:56.835Z,100142.97
2022-10-15T23:46:24.126Z,100145.66
2022-10-15T23:48:51.045Z,100136.84
2022-10-15T23:51:24.612Z,100139.53
2022-10-15T23:53:52.350Z,100137.81
2022-10-15T23:56:19.309Z,100133.44
2022-10-15T23:58:50.728Z,100141.47
